Kilkenny, Ireland

2:00 AM IST on October 25, 2014 (GMT +0100)
Kilkenny | Change Station
CLOSE
Current Station
Personal Weather Station
Location: Kilkenny City, Co. Kilkenny
Elevation: 160 ft
Nearby Weather Stations

Elev 160 ft 52.66 °N, 7.25 °W | Updated 8 minutes ago

Mostly Cloudy
Mostly Cloudy
43.7 °F
Feels Like 44 °F
N
0.0
Wind Variable Wind from SSW
Gusts 0.0 mph

Today
High -- | Low -- °F
--% Chance of Precip.
Yesterday
High -- | Low -- °F
Precip. -- in
8:12 AM 6:12 PM
New Moon, 1% visible
Pressure 29.86 in
Visibility 6.2 miles
Clouds Few 3000 ft
Mostly Cloudy 5000 ft
Windchill 44 °F
Dew Point 43 °F
Humidity 98%
Rainfall 0.00 in
Snow Depth Not available.
UV 0 out of 12
Pollen Not available.
Air Quality Not available.
Flu Activity Not available.
METAR EIME 250000Z 21015KT 9999 FEW030 BKN050 09/07 Q1011

More Conditions Fewer Conditions

Pressure 29.86 in
Visibility 6.2 miles
Clouds Few 3000 ft
Mostly Cloudy 5000 ft
Windchill 44 °F
Dew Point 43 °F
Humidity 98%
Rainfall 0.00 in
Snow Depth Not available.
UV 0 out of 12
Pollen Not available.
Air Quality Not available.
Flu Activity Not available.
METAR EIME 250000Z 21015KT 9999 FEW030 BKN050 09/07 Q1011

More Conditions Fewer Conditions

10-Day Weather Forecast

Almanac

Astronomy

Oct. 25, 2014 Rise Set
Actual Time 8:12 AM IST 6:12 PM IST
Civil Twilight 7:37 AM IST 6:48 PM IST
Nautical Twilight 6:57 AM IST 7:28 PM IST
Astronomical Twilight 6:17 AM IST 8:07 PM IST
Moon 9:47 AM IST 7:14 PM IST
Length of Visible Light 11h 11m
Length of Day
10h 00m
Tomorrow will be 3m 52s shorter.
New Moon, 1% of the Moon is Illuminated
Oct 24
New Moon
Oct 30
First Quarter
Nov 6
Full
Nov 14
Last Quarter
Nov 22
New

Yesterday's Extremes

Country Highs Country Lows

Community

WunderPhotos

Upload Photos

1,764,735 photos uploaded!

WunderBlogs® & News

Nearby

Snow Depth

Not available.

Earthquake Activity

City Distance Mag. Time & Date
No recent earthquake activity has been reported nearby.
Minimum magnitude displayed is 2.5.

Coastal Water Temperatures

Place Temperature
No Stations Reporting

Nearby Weather Stations